| time (UTC) | temp F | wind direction | speed MPH | gust MPH | rain 1hr in | rain 24hr in | rain mn in | humidity % | barometer mb |
| 20260508134559 | 61 | 175 | 1.0 | 2.0 | 0.00 | 0.06 | 0.00 | 47 | 1017.9 |
| 20260508133120 | 60 | 139 | 1.0 | 2.0 | 0.00 | 0.06 | 0.00 | 53 | 1017.6 |
| 20260508131555 | 60 | 128 | 1.0 | 3.0 | 0.00 | 0.06 | 0.00 | 48 | 1017.5 |
| 20260508130055 | 60 | 184 | 0.0 | 2.0 | 0.00 | 0.06 | 0.00 | 52 | 1017.6 |
| 20260508124558 | 58 | 207 | 0.0 | 2.0 | 0.00 | 0.14 | 0.00 | 55 | 1017.6 |
| 20260508123111 | 56 | 33 | 0.0 | 1.0 | 0.00 | 0.14 | 0.00 | 67 | 1017.5 |
| 20260508121554 | 56 | 349 | 0.0 | 2.0 | 0.00 | 0.14 | 0.00 | 68 | 1017.3 |
| 20260508120059 | 54 | 0 | 0.0 | 2.0 | 0.00 | 0.14 | 0.00 | 61 | 1017.1 |
| 20260508114552 | 53 | 85 | 0.0 | 1.0 | 0.00 | 0.27 | 0.00 | 63 | 1016.9 |
| 20260508113112 | 51 | 101 | 0.0 | 2.0 | 0.00 | 0.27 | 0.00 | 65 | 1016.5 |
| 20260508111605 | 50 | 80 | 0.0 | 2.0 | 0.00 | 0.27 | 0.00 | 67 | 1016.4 |
| 20260508110059 | 49 | 89 | 1.0 | 2.0 | 0.00 | 0.27 | 0.00 | 70 | 1016.3 |
| 20260508104555 | 49 | 84 | 1.0 | 1.0 | 0.00 | 0.27 | 0.00 | 70 | 1016.0 |
| 20260508103100 | 48 | 84 | 1.0 | 2.0 | 0.00 | 0.27 | 0.00 | 74 | 1015.6 |
| 20260508101607 | 47 | 75 | 1.0 | 2.0 | 0.00 | 0.27 | 0.00 | 82 | 1015.5 |
| 20260508100055 | 47 | 127 | 1.0 | 2.0 | 0.00 | 0.27 | 0.00 | 82 | 1015.5 |
| 20260508094553 | 47 | 99 | 1.0 | 2.0 | 0.00 | 0.27 | 0.00 | 81 | 1015.4 |
| 20260508093052 | 47 | 136 | 1.0 | 2.0 | 0.00 | 0.27 | 0.00 | 84 | 1015.3 |
| 20260508091606 | 47 | 87 | 1.0 | 1.0 | 0.00 | 0.27 | 0.00 | 85 | 1015.1 |
| 20260508090109 | 47 | 89 | 1.0 | 1.0 | 0.00 | 0.27 | 0.00 | 85 | 1015.0 |
| 20260508084553 | 47 | 93 | 0.0 | 2.0 | 0.00 | 0.27 | 0.00 | 84 | 1015.0 |
| 20260508083057 | 48 | 72 | 1.0 | 1.0 | 0.00 | 0.27 | 0.00 | 82 | 1015.0 |
| 20260508081604 | 49 | 85 | 1.0 | 1.0 | 0.00 | 0.27 | 0.00 | 80 | 1014.8 |
| 20260508080055 | 48 | 94 | 1.0 | 2.0 | 0.00 | 0.27 | 0.00 | 83 | 1014.8 |
| 20260508074555 | 48 | 84 | 0.0 | 2.0 | 0.00 | 0.27 | 0.00 | 83 | 1014.6 |
| 20260508073108 | 49 | 91 | 0.0 | 1.0 | 0.00 | 0.27 | 0.00 | 82 | 1014.6 |
| 20260508071603 | 49 | 101 | 0.0 | 0.0 | 0.00 | 0.27 | 0.00 | 81 | 1014.6 |
| 20260508070053 | 49 | 0 | 0.0 | 0.0 | 0.00 | 0.27 | 0.00 | 82 | 1014.5 |
| 20260508064557 | 49 | 0 | 0.0 | 1.0 | 0.00 | 0.29 | 0.00 | 82 | 1014.4 |
| 20260508063053 | 50 | 0 | 0.0 | 1.0 | 0.00 | 0.29 | 0.00 | 81 | 1014.4 |
| 20260508061555 | 49 | 0 | 0.0 | 1.0 | 0.00 | 0.29 | 0.00 | 82 | 1014.4 |
| 20260508060055 | 50 | 97 | 0.0 | 1.0 | 0.00 | 0.29 | 0.00 | 80 | 1014.5 |
| 20260508054556 | 50 | 113 | 0.0 | 1.0 | 0.00 | 0.31 | 0.00 | 80 | 1014.4 |
| 20260508053116 | 50 | 0 | 0.0 | 1.0 | 0.00 | 0.31 | 0.00 | 81 | 1014.3 |
| 20260508051552 | 50 | 0 | 0.0 | 1.0 | 0.00 | 0.31 | 0.00 | 81 | 1014.2 |
| 20260508050057 | 52 | 0 | 0.0 | 1.0 | 0.00 | 0.31 | 0.00 | 77 | 1014.0 |
| 20260508044556 | 52 | 0 | 0.0 | 1.0 | 0.00 | 0.33 | 0.00 | 76 | 1013.8 |
| 20260508043103 | 52 | 146 | 0.0 | 1.0 | 0.00 | 0.33 | 0.00 | 77 | 1013.9 |
| 20260508041615 | 51 | 146 | 0.0 | 1.0 | 0.00 | 0.33 | 0.00 | 79 | 1013.8 |
| 20260508040107 | 50 | 0 | 0.0 | 0.0 | 0.00 | 0.33 | 0.00 | 81 | 1013.8 |
| 20260508034551 | 51 | 0 | 0.0 | 1.0 | 0.00 | 0.33 | 0.33 | 79 | 1013.7 |
| 20260508033054 | 52 | 0 | 0.0 | 1.0 | 0.00 | 0.33 | 0.33 | 77 | 1013.6 |
| 20260508031554 | 51 | 0 | 0.0 | 1.0 | 0.00 | 0.33 | 0.33 | 78 | 1013.5 |
| 20260508030054 | 52 | 0 | 0.0 | 0.0 | 0.00 | 0.33 | 0.33 | 77 | 1013.6 |
| 20260508024604 | 52 | 0 | 0.0 | 0.0 | 0.00 | 0.38 | 0.33 | 77 | 1013.3 |
| 20260508023054 | 52 | 0 | 0.0 | 0.0 | 0.00 | 0.38 | 0.33 | 77 | 1013.2 |
| 20260508021552 | 53 | 0 | 0.0 | 0.0 | 0.00 | 0.38 | 0.33 | 76 | 1013.0 |
| 20260508020054 | 54 | 0 | 0.0 | 0.0 | 0.00 | 0.38 | 0.33 | 72 | 1012.8 |
| 20260508014551 | 55 | 0 | 0.0 | 0.0 | 0.00 | 0.41 | 0.33 | 71 | 1012.4 |
| 20260508013052 | 55 | 0 | 0.0 | 0.0 | 0.00 | 0.41 | 0.33 | 67 | 1012.2 |
| 20260508011558 | 57 | 158 | 0.0 | 0.0 | 0.00 | 0.41 | 0.33 | 65 | 1012.0 |
| 20260508010052 | 58 | 0 | 0.0 | 1.0 | 0.00 | 0.41 | 0.33 | 62 | 1011.6 |
| 20260508004557 | 59 | 74 | 0.0 | 3.0 | 0.00 | 0.45 | 0.33 | 59 | 1011.5 |
| 20260508003105 | 59 | 97 | 5.0 | 7.0 | 0.00 | 0.45 | 0.33 | 58 | 1011.1 |
| 20260508001552 | 60 | 64 | 3.0 | 7.0 | 0.00 | 0.45 | 0.33 | 60 | 1011.1 |
| 20260508000052 | 61 | 82 | 4.0 | 9.0 | 0.00 | 0.45 | 0.33 | 59 | 1011.3 |
| 20260507234554 | 62 | 70 | 4.0 | 11.0 | 0.00 | 0.45 | 0.33 | 60 | 1011.2 |
| 20260507233102 | 63 | 72 | 6.0 | 10.0 | 0.00 | 0.45 | 0.33 | 60 | 1011.0 |
| 20260507231557 | 64 | 60 | 5.0 | 8.0 | 0.00 | 0.45 | 0.33 | 63 | 1010.7 |
| 20260507230059 | 64 | 108 | 2.0 | 5.0 | 0.00 | 0.45 | 0.33 | 66 | 1010.6 |
| 20260507224558 | 64 | 139 | 0.0 | 1.0 | 0.00 | 0.45 | 0.33 | 80 | 1010.2 |
| 20260507223056 | 63 | 132 | 1.0 | 5.0 | 0.00 | 0.45 | 0.33 | 81 | 1009.8 |
| 20260507221553 | 63 | 219 | 1.0 | 5.0 | 0.00 | 0.45 | 0.33 | 82 | 1009.4 |
| 20260507220056 | 63 | 325 | 2.0 | 6.0 | 0.00 | 0.45 | 0.33 | 82 | 1009.2 |
| 20260507214604 | 63 | 26 | 1.0 | 5.0 | 0.00 | 0.45 | 0.33 | 83 | 1009.2 |
| 20260507213104 | 63 | 107 | 1.0 | 4.0 | 0.00 | 0.45 | 0.33 | 82 | 1009.0 |
| 20260507211554 | 63 | 221 | 1.0 | 4.0 | 0.00 | 0.45 | 0.33 | 82 | 1008.8 |
| 20260507210059 | 64 | 315 | 2.0 | 5.0 | 0.00 | 0.45 | 0.33 | 81 | 1008.6 |
| 20260507204553 | 65 | 86 | 1.0 | 9.0 | 0.00 | 0.45 | 0.33 | 81 | 1008.6 |
| 20260507203051 | 66 | 335 | 1.0 | 7.0 | 0.00 | 0.45 | 0.33 | 81 | 1008.1 |
| 20260507201554 | 66 | 125 | 2.0 | 6.0 | 0.00 | 0.45 | 0.33 | 81 | 1007.8 |
| 20260507200057 | 66 | 201 | 3.0 | 12.0 | 0.00 | 0.45 | 0.33 | 81 | 1008.1 |
| 20260507194617 | 66 | 35 | 4.0 | 9.0 | 0.02 | 0.45 | 0.33 | 82 | 1007.8 |
| 20260507193055 | 65 | 120 | 3.0 | 8.0 | 0.06 | 0.45 | 0.33 | 84 | 1007.9 |
| 20260507191554 | 69 | 123 | 4.0 | 7.0 | 0.06 | 0.45 | 0.33 | 78 | 1008.3 |
| 20260507190057 | 70 | 213 | 0.0 | 1.0 | 0.06 | 0.45 | 0.33 | 87 | 1007.9 |
| 20260507184556 | 70 | 211 | 0.0 | 4.0 | 0.04 | 0.43 | 0.31 | 83 | 1007.7 |
| 20260507183056 | 72 | 352 | 1.0 | 4.0 | 0.00 | 0.39 | 0.27 | 70 | 1007.9 |
| 20260507181558 | 73 | 353 | 1.0 | 4.0 | 0.00 | 0.39 | 0.27 | 71 | 1007.8 |
| 20260507180052 | 73 | 304 | 1.0 | 6.0 | 0.00 | 0.39 | 0.27 | 71 | 1007.8 |
| 20260507174602 | 73 | 243 | 1.0 | 4.0 | 0.00 | 0.40 | 0.27 | 71 | 1007.9 |
| 20260507173132 | 73 | 89 | 1.0 | 5.0 | 0.00 | 0.40 | 0.27 | 73 | 1007.9 |
| 20260507171608 | 72 | 345 | 2.0 | 6.0 | 0.00 | 0.40 | 0.27 | 73 | 1008.1 |
| 20260507170110 | 72 | 62 | 3.0 | 9.0 | 0.00 | 0.40 | 0.27 | 74 | 1008.4 |
| 20260507164559 | 71 | 115 | 1.0 | 4.0 | 0.00 | 0.42 | 0.27 | 79 | 1008.7 |
| 20260507163054 | 69 | 18 | 2.0 | 3.0 | 0.00 | 0.42 | 0.27 | 79 | 1008.8 |
| 20260507161604 | 70 | 216 | 1.0 | 5.0 | 0.00 | 0.42 | 0.27 | 81 | 1009.1 |
| 20260507160058 | 68 | 6 | 1.0 | 2.0 | 0.00 | 0.42 | 0.27 | 85 | 1008.8 |
| 20260507154554 | 67 | 33 | 1.0 | 3.0 | 0.00 | 0.42 | 0.27 | 89 | 1008.6 |
| 20260507153101 | 67 | 0 | 1.0 | 3.0 | 0.00 | 0.42 | 0.27 | 89 | 1008.8 |
| 20260507151556 | 66 | 332 | 0.0 | 2.0 | 0.00 | 0.42 | 0.27 | 90 | 1009.2 |
| 20260507150100 | 65 | 185 | 1.0 | 3.0 | 0.00 | 0.42 | 0.27 | 93 | 1009.1 |
| 20260507144557 | 64 | 328 | 0.0 | 2.0 | 0.00 | 0.42 | 0.27 | 94 | 1009.3 |
| 20260507143059 | 64 | 0 | 0.0 | 2.0 | 0.00 | 0.42 | 0.27 | 94 | 1009.4 |
| 20260507141628 | 64 | 0 | 0.0 | 2.0 | 0.00 | 0.42 | 0.27 | 94 | 1009.5 |
| 20260507140055 | 63 | 56 | 0.0 | 1.0 | 0.00 | 0.42 | 0.27 | 95 | 1009.2 |